createdAt,value
2022-12-19T00:00:24.386Z,7.50
2022-12-19T00:01:29.702Z,9.30
2022-12-19T00:02:33.434Z,6.70
2022-12-19T00:03:36.148Z,6.60
2022-12-19T00:04:38.184Z,4.60
2022-12-19T00:05:40.980Z,9.20
2022-12-19T00:06:44.025Z,9.30
2022-12-19T00:07:48.784Z,8.40
2022-12-19T00:08:52.219Z,4.90
2022-12-19T00:09:54.055Z,3.70
2022-12-19T00:11:00.290Z,6.70
2022-12-19T00:12:02.138Z,5.60
2022-12-19T00:13:03.810Z,6.22
2022-12-19T00:14:06.583Z,13.11
2022-12-19T00:15:09.336Z,6.90
2022-12-19T00:16:14.419Z,5.18
2022-12-19T00:17:18.215Z,5.30
2022-12-19T00:18:20.338Z,4.78
2022-12-19T00:19:22.137Z,3.40
2022-12-19T00:20:23.865Z,4.44
2022-12-19T00:21:30.837Z,5.33
2022-12-19T00:22:34.430Z,2.20
2022-12-19T00:23:36.199Z,4.89
2022-12-19T00:24:37.945Z,7.67
2022-12-19T00:25:40.166Z,7.67
2022-12-19T00:26:43.357Z,6.80
2022-12-19T00:27:45.461Z,8.78
2022-12-19T00:28:50.955Z,6.44
2022-12-19T00:29:52.790Z,9.50
2022-12-19T00:30:55.181Z,3.00
2022-12-19T00:31:58.576Z,5.50
2022-12-19T00:33:00.430Z,7.56
2022-12-19T00:34:02.835Z,3.89
2022-12-19T00:35:05.220Z,7.50
2022-12-19T00:36:16.483Z,8.20
2022-12-19T00:37:19.978Z,3.80
2022-12-19T00:38:22.099Z,4.67
2022-12-19T00:39:24.233Z,5.80
2022-12-19T00:40:26.118Z,4.60
2022-12-19T00:41:33.279Z,5.67
2022-12-19T00:42:35.208Z,3.30
2022-12-19T00:43:38.240Z,0.44
2022-12-19T00:44:40.192Z,2.60
2022-12-19T00:45:41.979Z,4.78
2022-12-19T00:46:45.151Z,3.89
2022-12-19T00:47:49.149Z,4.20
2022-12-19T00:48:50.975Z,8.78
2022-12-19T00:49:54.737Z,6.44
2022-12-19T00:51:15.026Z,4.90
2022-12-19T00:52:17.766Z,7.00
2022-12-19T00:53:19.577Z,6.90
2022-12-19T00:54:21.495Z,7.00
2022-12-19T00:55:23.472Z,4.89
2022-12-19T00:56:31.192Z,5.78
2022-12-19T00:57:34.924Z,5.00
2022-12-19T00:58:36.791Z,6.67
2022-12-19T00:59:38.416Z,5.11
2022-12-19T01:00:40.700Z,8.33
2022-12-19T01:01:44.364Z,5.30
2022-12-19T01:02:48.710Z,7.50
2022-12-19T01:04:26.158Z,5.40
2022-12-19T01:04:54.795Z,6.60
2022-12-19T01:05:56.516Z,9.44
2022-12-19T01:07:03.108Z,8.50
2022-12-19T01:08:10.086Z,6.10
2022-12-19T01:09:13.277Z,0.11
2022-12-19T01:10:17.777Z,9.70
2022-12-19T01:11:20.394Z,7.00
2022-12-19T01:12:24.670Z,9.10
2022-12-19T01:13:29.396Z,7.80
2022-12-19T01:14:31.446Z,6.20
2022-12-19T01:15:33.081Z,3.44
2022-12-19T01:16:34.985Z,5.33
2022-12-19T01:17:43.728Z,5.11
2022-12-19T01:18:40.687Z,5.70
2022-12-19T01:19:44.629Z,4.22
2022-12-19T01:20:46.143Z,4.80
2022-12-19T01:21:48.062Z,9.89
2022-12-19T01:22:50.242Z,4.44
2022-12-19T01:23:52.610Z,6.80
2022-12-19T01:24:54.573Z,4.30
2022-12-19T01:25:58.955Z,3.22
2022-12-19T01:27:05.043Z,3.40
2022-12-19T01:29:51.827Z,1.50
2022-12-19T01:30:46.072Z,6.10
2022-12-19T01:31:50.555Z,2.20
2022-12-19T01:32:52.373Z,5.33
2022-12-19T01:33:54.872Z,4.50
2022-12-19T01:34:56.836Z,2.60
2022-12-19T01:35:58.580Z,1.67
2022-12-19T01:37:00.611Z,5.89
2022-12-19T01:38:08.523Z,2.09
2022-12-19T01:39:08.318Z,5.20
2022-12-19T01:40:12.102Z,2.11
2022-12-19T01:41:14.535Z,4.40
2022-12-19T01:42:23.096Z,6.10
2022-12-19T01:43:28.099Z,2.70
2022-12-19T01:44:31.350Z,3.60
2022-12-19T01:45:36.685Z,4.20
2022-12-19T01:46:45.222Z,6.70
2022-12-19T01:48:05.912Z,4.10
2022-12-19T01:49:17.915Z,5.20
2022-12-19T01:50:28.370Z,2.00
2022-12-19T01:51:42.773Z,6.10
2022-12-19T01:52:45.813Z,5.80
2022-12-19T01:53:51.509Z,7.20
2022-12-19T01:54:53.439Z,8.60
2022-12-19T01:55:55.784Z,5.44
2022-12-19T01:56:59.239Z,3.60
2022-12-19T01:58:03.025Z,1.00
2022-12-19T02:00:23.252Z,6.50
2022-12-19T02:01:26.521Z,5.91
2022-12-19T02:02:34.903Z,0.91
2022-12-19T02:03:37.867Z,5.10
2022-12-19T02:04:44.121Z,4.80
2022-12-19T02:05:46.063Z,3.30
2022-12-19T02:06:49.944Z,5.50
2022-12-19T02:07:52.453Z,2.30
2022-12-19T02:08:55.254Z,3.70
2022-12-19T02:09:58.089Z,7.00
2022-12-19T02:11:01.834Z,4.70
2022-12-19T02:12:05.470Z,4.90
2022-12-19T02:13:09.793Z,2.50
2022-12-19T03:52:28.607Z,6.50
2022-12-19T03:53:50.549Z,5.70
2022-12-19T06:08:25.809Z,5.27
2022-12-19T06:09:28.074Z,8.00
2022-12-19T06:10:30.011Z,5.78
2022-12-19T06:11:32.116Z,13.33
2022-12-19T06:12:34.065Z,5.33
2022-12-19T06:13:37.163Z,4.44
2022-12-19T06:14:39.425Z,13.55
2022-12-19T06:15:41.298Z,12.00
2022-12-19T06:16:43.173Z,14.89
2022-12-19T06:17:44.981Z,16.33
2022-12-19T06:18:47.209Z,16.22
2022-12-19T06:19:49.198Z,15.70
2022-12-19T06:21:04.131Z,18.11
2022-12-19T06:22:05.999Z,16.50
2022-12-19T06:23:08.048Z,17.22
2022-12-19T06:24:10.951Z,17.55
2022-12-19T06:25:12.933Z,12.89
2022-12-19T06:26:20.000Z,16.78
2022-12-19T06:27:21.812Z,12.70
2022-12-19T06:28:25.486Z,16.40
2022-12-19T06:29:27.443Z,17.00
2022-12-19T06:30:29.452Z,17.50
2022-12-19T06:31:31.449Z,18.44
2022-12-19T06:32:37.714Z,21.67
2022-12-19T06:33:37.173Z,25.10
2022-12-19T06:35:03.240Z,21.78
2022-12-19T06:35:43.059Z,25.20
2022-12-19T06:36:44.947Z,22.50
2022-12-19T06:37:48.083Z,23.78
2022-12-19T06:38:50.907Z,20.36
2022-12-19T06:39:52.851Z,21.91
2022-12-19T06:40:55.171Z,18.89
2022-12-19T06:41:57.202Z,2.44
2022-12-19T06:42:59.169Z,17.80
2022-12-19T06:44:03.411Z,14.00
2022-12-19T06:45:07.191Z,19.70
2022-12-19T06:46:09.629Z,20.30
2022-12-19T06:47:11.611Z,18.90
2022-12-19T06:48:13.581Z,22.44
2022-12-19T06:49:15.337Z,17.89
2022-12-19T06:50:17.550Z,14.00
2022-12-19T06:51:20.029Z,25.89
2022-12-19T06:52:22.123Z,26.60
2022-12-19T06:53:24.186Z,25.60
2022-12-19T06:54:26.583Z,24.80
2022-12-19T06:55:28.453Z,27.50
2022-12-19T06:56:36.144Z,24.33
2022-12-19T06:57:38.327Z,18.00
2022-12-19T06:58:40.481Z,25.89
2022-12-19T06:59:42.221Z,23.44
2022-12-19T07:00:44.457Z,25.33
2022-12-19T07:02:02.229Z,19.90
2022-12-19T07:03:07.691Z,21.60
2022-12-19T07:04:12.728Z,23.20
2022-12-19T07:05:14.834Z,24.90
2022-12-19T07:06:17.377Z,25.56
2022-12-19T07:07:19.854Z,25.50
2022-12-19T07:08:21.957Z,25.20
2022-12-19T07:09:25.140Z,22.22
2022-12-19T07:10:27.533Z,20.60
2022-12-19T08:26:24.159Z,12.10
2022-12-19T08:27:27.370Z,11.00
2022-12-19T08:28:31.459Z,5.22
2022-12-19T08:29:33.562Z,7.60
2022-12-19T08:30:40.558Z,10.67
2022-12-19T08:31:42.487Z,8.80
2022-12-19T08:32:45.054Z,8.67
2022-12-19T08:33:47.033Z,10.30
2022-12-19T08:34:49.995Z,8.44
2022-12-19T08:35:52.030Z,12.45
2022-12-19T08:36:53.881Z,9.78
2022-12-19T08:37:55.582Z,6.44
2022-12-19T08:38:57.425Z,8.33
2022-12-19T08:40:00.533Z,13.60
2022-12-19T08:41:03.145Z,13.10
2022-12-19T08:42:05.168Z,7.70
2022-12-19T08:43:06.912Z,11.22
2022-12-19T08:44:11.003Z,6.22
2022-12-19T08:45:13.064Z,10.70
2022-12-19T08:46:15.813Z,12.10
2022-12-19T08:47:17.910Z,11.00
2022-12-19T08:48:20.178Z,9.50
2022-12-19T08:49:22.062Z,11.78
2022-12-19T08:50:24.145Z,7.89
2022-12-19T08:51:26.021Z,6.89
2022-12-19T08:52:28.027Z,12.33
2022-12-19T08:53:32.478Z,12.56
2022-12-19T08:54:34.558Z,11.80
2022-12-19T08:55:36.303Z,13.22
2022-12-19T08:56:43.588Z,13.78
2022-12-19T08:57:42.902Z,12.70
2022-12-19T08:58:45.670Z,14.89
2022-12-19T08:59:47.953Z,14.00
2022-12-19T09:00:56.523Z,14.60
2022-12-19T09:01:57.377Z,13.00
2022-12-19T09:03:00.017Z,9.30
2022-12-19T09:05:50.889Z,13.00
2022-12-19T09:05:58.411Z,11.30
2022-12-19T09:06:19.084Z,13.40
2022-12-19T09:07:16.883Z,8.10
2022-12-19T09:08:18.635Z,13.20
2022-12-19T09:09:20.360Z,13.67
2022-12-19T09:10:22.199Z,14.00
2022-12-19T09:11:24.475Z,12.22
2022-12-19T09:12:26.619Z,12.60
2022-12-19T09:13:29.925Z,12.90
2022-12-19T09:14:34.086Z,14.00
2022-12-19T09:15:35.889Z,9.80
2022-12-19T09:16:39.322Z,14.60
2022-12-19T09:17:41.450Z,10.30
2022-12-19T09:18:48.792Z,13.20
2022-12-19T09:19:50.132Z,12.90
2022-12-19T09:20:55.581Z,10.89
2022-12-19T09:21:57.420Z,11.90
2022-12-19T09:22:59.037Z,10.22
2022-12-19T09:24:07.483Z,12.44
2022-12-19T09:25:05.557Z,10.60
2022-12-19T09:26:12.402Z,11.30
2022-12-19T09:27:14.957Z,10.40
2022-12-19T09:28:27.393Z,8.00
2022-12-19T09:29:22.296Z,11.60
2022-12-19T09:30:24.529Z,12.00
2022-12-19T09:31:28.009Z,9.64
2022-12-19T09:32:30.054Z,9.10
2022-12-19T09:33:41.206Z,10.40
2022-12-19T09:34:39.110Z,11.90
2022-12-19T09:35:45.015Z,12.36
2022-12-19T09:36:47.105Z,12.50
2022-12-19T09:37:49.384Z,12.10
2022-12-19T09:38:55.778Z,9.70
2022-12-19T09:39:58.910Z,10.10
2022-12-19T09:41:05.043Z,12.40
2022-12-19T09:42:23.311Z,12.10
2022-12-19T09:43:28.811Z,13.50
2022-12-19T09:44:40.320Z,9.70
2022-12-19T09:46:04.351Z,9.60
2022-12-19T09:47:19.164Z,10.40
2022-12-19T09:48:24.439Z,9.20
2022-12-19T09:49:41.667Z,11.70
2022-12-19T09:51:10.070Z,12.40
2022-12-19T09:52:13.715Z,8.70
2022-12-19T09:53:24.972Z,10.20
2022-12-19T09:54:36.717Z,11.60
2022-12-19T09:55:41.009Z,10.80
2022-12-19T09:56:45.660Z,10.60
2022-12-19T09:58:00.548Z,9.60
2022-12-19T09:59:13.931Z,10.20
2022-12-19T10:00:19.412Z,11.60
2022-12-19T10:01:25.183Z,13.80
2022-12-19T10:02:34.150Z,11.30
2022-12-19T14:22:52.531Z,34.40
2022-12-19T14:24:19.350Z,36.50
2022-12-19T14:28:14.850Z,38.50
2022-12-19T14:28:17.937Z,45.50
2022-12-19T14:28:20.125Z,43.40
2022-12-19T14:28:54.391Z,42.70
2022-12-19T14:30:30.881Z,45.20
2022-12-19T14:31:01.401Z,41.70
2022-12-19T14:33:21.991Z,42.60
2022-12-19T14:33:45.854Z,42.80
2022-12-19T14:34:47.120Z,35.00
2022-12-19T14:36:07.878Z,38.40
2022-12-19T14:36:50.747Z,36.30
2022-12-19T14:39:20.361Z,34.00
2022-12-19T14:39:25.134Z,38.30
2022-12-19T14:40:25.708Z,36.90
2022-12-19T14:41:31.397Z,36.70
2022-12-19T14:43:57.345Z,36.10
2022-12-19T14:44:00.527Z,35.50
2022-12-19T14:52:08.736Z,35.90
2022-12-19T14:54:00.205Z,39.40
2022-12-19T14:54:03.814Z,36.00
2022-12-19T14:54:40.197Z,36.90
2022-12-19T14:57:06.245Z,28.80
2022-12-19T14:58:53.099Z,35.40
2022-12-19T14:59:32.855Z,31.50
2022-12-19T15:01:08.375Z,27.50
2022-12-19T15:02:07.520Z,28.40
2022-12-19T15:03:16.114Z,27.00
2022-12-19T15:04:53.257Z,26.30
2022-12-19T15:05:24.797Z,26.80
2022-12-19T15:07:07.430Z,27.30
2022-12-19T15:07:34.633Z,19.20
2022-12-19T15:09:02.592Z,17.60
2022-12-19T15:11:00.906Z,23.80
2022-12-19T15:11:16.163Z,28.80
2022-12-19T15:14:46.608Z,28.90
2022-12-19T15:14:46.785Z,28.90
2022-12-19T15:14:56.173Z,29.80
2022-12-19T15:15:47.913Z,27.60
2022-12-19T15:17:10.211Z,32.50
2022-12-19T15:18:19.274Z,31.90
2022-12-19T15:19:21.324Z,30.10
2022-12-19T15:20:23.922Z,31.80
2022-12-19T15:21:27.214Z,31.50
2022-12-19T15:22:29.199Z,30.10
2022-12-19T15:23:32.094Z,28.80
2022-12-19T15:24:34.133Z,29.45
2022-12-19T15:26:02.829Z,31.33
2022-12-19T15:26:52.008Z,31.20
2022-12-19T15:27:54.555Z,31.10
2022-12-19T15:28:57.159Z,25.30
2022-12-19T15:29:59.585Z,30.60
2022-12-19T15:31:23.655Z,30.90
2022-12-19T15:32:27.003Z,30.80
2022-12-19T15:33:29.167Z,32.20
2022-12-19T15:34:35.848Z,32.44
2022-12-19T15:35:36.570Z,33.90
2022-12-19T15:36:38.676Z,33.70
2022-12-19T15:37:40.906Z,31.78
2022-12-19T15:38:42.889Z,34.70
2022-12-19T15:39:45.023Z,35.44
2022-12-19T15:40:47.791Z,35.80
2022-12-19T15:41:53.943Z,32.10
2022-12-19T15:42:58.238Z,36.00
2022-12-19T15:44:09.843Z,34.70
2022-12-19T15:45:15.681Z,35.10
2022-12-19T15:46:17.901Z,31.80
2022-12-19T15:47:36.788Z,36.22
2022-12-19T15:48:41.847Z,37.40
2022-12-19T15:49:43.905Z,42.00
2022-12-19T15:50:46.563Z,42.11
2022-12-19T15:51:50.472Z,44.70
2022-12-19T15:52:55.724Z,43.90
2022-12-19T15:54:15.523Z,42.90
2022-12-19T15:55:02.388Z,45.30
2022-12-19T15:56:07.135Z,39.90
2022-12-19T15:57:16.245Z,44.60
2022-12-19T15:58:19.794Z,41.00
2022-12-19T15:59:23.732Z,31.60
2022-12-19T16:00:32.848Z,41.60
2022-12-19T16:01:36.296Z,44.30
2022-12-19T16:03:21.066Z,43.20
2022-12-19T16:03:50.906Z,43.30
2022-12-19T16:04:54.490Z,39.30
2022-12-19T16:05:57.810Z,41.40
2022-12-19T16:07:14.129Z,41.10
2022-12-19T16:08:19.577Z,35.00
2022-12-19T16:09:38.849Z,35.80
2022-12-19T16:10:55.898Z,33.00
2022-12-19T16:12:22.236Z,39.50
2022-12-19T16:13:31.481Z,39.50
2022-12-19T16:14:33.749Z,37.90
2022-12-19T16:15:37.134Z,37.20
2022-12-19T16:16:40.733Z,36.45
2022-12-19T16:17:43.846Z,37.60
2022-12-19T16:18:46.769Z,35.00
2022-12-19T16:19:50.937Z,39.18
2022-12-19T16:20:53.399Z,36.60
2022-12-19T16:21:57.084Z,40.50
2022-12-19T16:22:59.507Z,38.40
2022-12-19T16:24:01.812Z,36.60
2022-12-19T16:25:07.668Z,38.00
2022-12-19T16:26:15.776Z,37.40
2022-12-19T16:27:24.541Z,38.50
2022-12-19T16:28:31.425Z,39.50
2022-12-19T16:29:42.101Z,40.50
2022-12-19T16:31:59.533Z,43.30
2022-12-19T16:45:23.047Z,43.30
2022-12-19T16:46:25.263Z,36.00
2022-12-19T16:47:27.832Z,38.90
2022-12-19T16:48:30.973Z,35.00
2022-12-19T16:49:33.517Z,36.10
2022-12-19T16:50:35.586Z,35.90
2022-12-19T16:51:37.819Z,31.89
2022-12-19T16:52:42.722Z,34.30
2022-12-19T16:53:43.842Z,30.60
2022-12-19T16:54:46.657Z,31.90
2022-12-19T16:55:49.788Z,33.22
2022-12-19T16:56:53.317Z,33.60
2022-12-19T16:57:56.289Z,34.10
2022-12-19T16:59:02.155Z,33.00
2022-12-19T17:00:06.233Z,35.00
2022-12-19T17:01:09.680Z,33.70
2022-12-19T17:02:19.233Z,29.90
2022-12-19T17:03:34.472Z,33.10
2022-12-19T17:04:41.833Z,36.80
2022-12-19T17:05:41.264Z,35.30
2022-12-19T17:06:44.212Z,4.89
2022-12-19T17:07:47.368Z,32.45
2022-12-19T17:08:49.725Z,37.30
2022-12-19T17:09:51.871Z,35.10
2022-12-19T17:10:54.844Z,35.80
2022-12-19T17:12:01.040Z,41.00
2022-12-19T17:13:03.690Z,38.10
2022-12-19T17:15:23.389Z,38.40
2022-12-19T17:16:25.890Z,40.50
2022-12-19T17:17:28.586Z,39.50
2022-12-19T17:18:36.220Z,40.90
2022-12-19T17:19:39.308Z,38.00
2022-12-19T17:20:43.458Z,35.10
2022-12-19T17:21:45.553Z,36.90
2022-12-19T17:22:48.172Z,33.56
2022-12-19T17:23:51.311Z,38.20
2022-12-19T17:24:53.446Z,34.82
2022-12-19T17:25:56.256Z,33.70
2022-12-19T17:26:58.410Z,33.60
2022-12-19T17:28:00.794Z,22.67
2022-12-19T17:29:02.797Z,36.70
2022-12-19T17:30:06.646Z,33.44
2022-12-19T17:32:33.498Z,32.80
2022-12-19T17:33:38.521Z,32.90
2022-12-19T17:34:40.629Z,30.80
2022-12-19T17:35:44.411Z,32.44
2022-12-19T17:36:47.225Z,31.40
2022-12-19T17:37:52.816Z,37.30
2022-12-19T17:39:00.229Z,33.80
2022-12-19T17:40:03.937Z,33.70
2022-12-19T17:41:08.351Z,36.00
2022-12-19T17:43:26.234Z,31.80
2022-12-19T17:44:29.190Z,29.30
2022-12-19T17:45:33.252Z,27.80
2022-12-19T17:46:36.255Z,30.00
2022-12-19T17:47:38.731Z,32.60
2022-12-19T17:48:40.611Z,27.80
2022-12-19T17:49:43.855Z,33.56
2022-12-19T17:50:47.044Z,33.80
2022-12-19T17:51:51.293Z,37.20
2022-12-19T17:52:54.563Z,31.60
2022-12-19T17:53:57.100Z,37.18
2022-12-19T17:54:58.935Z,32.70
2022-12-19T17:56:00.671Z,33.33
2022-12-19T17:57:02.637Z,34.33
2022-12-19T17:58:04.610Z,32.44
2022-12-19T17:59:06.535Z,32.89
2022-12-19T18:00:09.923Z,29.40
2022-12-19T18:01:22.846Z,32.80
2022-12-19T18:02:27.810Z,35.00
2022-12-19T18:03:30.628Z,29.55
2022-12-19T18:04:32.468Z,36.50
2022-12-19T18:05:36.249Z,30.78
2022-12-19T18:06:38.917Z,34.20
2022-12-19T18:07:40.699Z,30.50
2022-12-19T18:08:43.408Z,33.89
2022-12-19T18:09:45.501Z,34.10
2022-12-19T18:10:47.517Z,35.90
2022-12-19T18:11:51.795Z,20.67
2022-12-19T18:12:54.814Z,36.40
2022-12-19T18:13:57.845Z,35.27
2022-12-19T18:15:00.699Z,33.10
2022-12-19T18:16:04.283Z,30.00
2022-12-19T18:17:06.178Z,33.00
2022-12-19T18:18:14.155Z,34.30
2022-12-19T18:19:21.935Z,34.00
2022-12-19T18:20:31.924Z,24.40
2022-12-19T18:21:33.422Z,31.40
2022-12-19T18:22:35.780Z,33.18
2022-12-19T18:23:38.739Z,31.50
2022-12-19T18:24:41.650Z,34.00
2022-12-19T18:25:44.674Z,32.20
2022-12-19T18:26:46.667Z,37.00
2022-12-19T18:27:48.520Z,32.56
2022-12-19T18:28:50.350Z,27.44
2022-12-19T18:29:52.198Z,32.78
2022-12-19T18:30:58.140Z,29.67
2022-12-19T18:32:00.293Z,31.60
2022-12-19T18:33:04.008Z,30.50
2022-12-19T18:34:08.400Z,34.50
2022-12-19T18:35:20.154Z,31.60
2022-12-19T18:36:25.509Z,33.00
2022-12-19T18:37:27.570Z,33.70
2022-12-19T18:38:30.103Z,35.30
2022-12-19T18:39:31.891Z,34.60
2022-12-19T18:40:34.558Z,34.00
2022-12-19T18:41:36.670Z,32.80
2022-12-19T18:42:39.273Z,31.89
2022-12-19T18:43:41.054Z,35.80
2022-12-19T18:44:43.183Z,36.67
2022-12-19T18:45:47.855Z,32.22
2022-12-19T18:46:51.111Z,35.90
2022-12-19T18:47:57.456Z,35.30
2022-12-19T18:48:59.572Z,37.30
2022-12-19T18:50:02.520Z,34.70
2022-12-19T18:51:05.757Z,38.20
2022-12-19T18:52:10.427Z,33.70
2022-12-19T18:53:16.058Z,35.20
2022-12-19T18:54:20.996Z,32.20
2022-12-19T18:55:28.888Z,32.90
2022-12-19T18:56:31.516Z,35.80
2022-12-19T18:57:33.309Z,32.78
2022-12-19T18:58:36.388Z,35.33
2022-12-19T18:59:38.942Z,35.40
2022-12-19T19:00:41.091Z,36.44
2022-12-19T19:01:45.978Z,36.22
2022-12-19T19:03:03.445Z,33.40
2022-12-19T19:04:05.534Z,36.20
2022-12-19T20:12:44.934Z,28.70
2022-12-19T20:13:47.161Z,35.10
2022-12-19T20:14:49.269Z,34.30
2022-12-19T20:15:52.140Z,27.89
2022-12-19T20:16:55.445Z,30.00
2022-12-19T20:18:04.107Z,33.55
2022-12-19T20:19:08.323Z,31.30
2022-12-19T20:20:11.399Z,32.10
2022-12-19T20:21:14.105Z,33.91
2022-12-19T20:22:17.334Z,35.80
2022-12-19T20:23:19.640Z,36.30
2022-12-19T20:24:21.868Z,26.90
2022-12-19T20:25:24.184Z,34.60
2022-12-19T20:26:26.165Z,30.20
2022-12-19T20:27:33.536Z,36.11
2022-12-19T20:28:38.744Z,33.10
2022-12-19T20:29:41.228Z,28.40
2022-12-19T20:30:44.273Z,32.70
2022-12-19T20:31:46.877Z,30.70
2022-12-19T20:32:49.148Z,21.50
2022-12-19T20:33:53.490Z,34.89
2022-12-19T20:34:55.412Z,14.70
2022-12-19T20:36:03.811Z,35.44
2022-12-19T20:37:06.409Z,36.50
2022-12-19T20:38:08.406Z,33.60
2022-12-19T20:39:10.225Z,36.89
2022-12-19T20:40:12.230Z,36.11
2022-12-19T20:41:15.359Z,34.56
2022-12-19T20:42:17.901Z,38.36
2022-12-19T20:43:19.866Z,29.40
2022-12-19T20:44:24.420Z,35.44
2022-12-19T20:45:25.948Z,41.00
2022-12-19T20:46:29.193Z,34.70
2022-12-19T20:47:31.065Z,31.27
2022-12-19T20:48:33.255Z,34.56
2022-12-19T20:49:36.253Z,36.00
2022-12-19T20:50:42.885Z,32.80
2022-12-19T20:51:43.574Z,36.10
2022-12-19T20:52:45.483Z,33.40
2022-12-19T20:53:48.818Z,35.22
2022-12-19T20:54:50.748Z,35.30
2022-12-19T20:55:58.493Z,33.67
2022-12-19T20:57:09.779Z,31.10
2022-12-19T20:58:13.692Z,27.60
2022-12-19T20:59:16.347Z,34.60
2022-12-19T21:00:19.680Z,28.10
2022-12-19T21:01:28.541Z,32.60
2022-12-19T21:02:53.068Z,33.90
2022-12-19T21:03:39.543Z,32.50
2022-12-19T21:04:41.707Z,34.30
2022-12-19T21:05:47.469Z,35.44
2022-12-19T21:06:49.644Z,32.80
2022-12-19T21:07:51.409Z,25.50
2022-12-19T21:08:56.963Z,28.11
2022-12-19T21:09:59.470Z,29.70
2022-12-19T21:11:04.159Z,31.00
2022-12-19T21:12:06.870Z,33.90
2022-12-19T21:13:09.096Z,27.50
2022-12-19T21:14:11.089Z,29.70
2022-12-19T21:15:13.559Z,31.00
2022-12-19T21:16:18.524Z,33.00
2022-12-19T21:17:20.549Z,30.30
2022-12-19T21:18:24.193Z,28.11
2022-12-19T21:19:29.362Z,23.60
2022-12-19T21:20:36.133Z,21.67
2022-12-19T21:21:38.305Z,29.10
2022-12-19T21:22:40.633Z,30.22
